Time;durP1;ratioP1;P1;durP2;ratioP2;P2;SDS_P1;SDS_P2;PMS_P1;PMS_P2;Temp;Humidity;BMP_temperature;BMP_pressure;BME280_temperature;BME280_humidity;BME280_pressure;Samples;Min_cycle;Max_cycle;Signal;HPM_P1;HPM_P2
2022/11/06 00:02:24;;;;;;;;;;;;;;;26.26;34.39;100699.22;5072579;28;1112;-38
2022/11/06 00:04:49;;;;;;;;;;;;;;;26.27;34.01;100691.97;5067771;28;1163;-38
2022/11/06 00:07:14;;;;;;;;;;;;;;;26.28;34.19;100694.47;5072526;28;1806;-38
2022/11/06 00:09:40;;;;;;;;;;;;;;;26.32;33.86;100696.81;5055950;28;1096;-38
2022/11/06 00:12:05;;;;;;;;;;;;;;;26.29;34.27;100695.34;5056019;28;1166;-38
2022/11/06 00:14:30;;;;;;;;;;;;;;;26.28;34.12;100699.03;5062767;28;1910;-38
2022/11/06 00:16:56;;;;;;;;;;;;;;;26.29;34.36;100698.84;5075947;28;1174;-38
2022/11/06 00:19:21;;;;;;;;;;;;;;;26.26;34.14;100692.97;5062219;28;1210;-39
2022/11/06 00:21:46;;;;;;;;;;;;;;;26.31;33.96;100682.50;5075840;28;1111;-39
2022/11/06 00:24:12;;;;;;;;;;;;;;;26.35;33.87;100681.16;5075458;28;1202;-38
2022/11/06 00:26:37;;;;;;;;;;;;;;;26.25;33.90;100683.22;5076248;28;1127;-38
2022/11/06 00:29:03;;;;;;;;;;;;;;;26.29;34.03;100679.16;5070819;28;1436;-39
2022/11/06 00:31:29;;;;;;;;;;;;;;;26.33;34.16;100687.72;5075409;28;1111;-38
2022/11/06 00:33:55;;;;;;;;;;;;;;;26.33;33.77;100690.44;5061464;28;1961;-41
2022/11/06 00:36:21;;;;;;;;;;;;;;;26.35;33.86;100694.63;5058401;28;1148;-39
2022/11/06 00:38:46;;;;;;;;;;;;;;;26.29;33.76;100700.72;5053159;28;2525;-38
2022/11/06 00:41:14;;;;;;;;;;;;;;;26.31;34.07;100695.97;5079961;28;1292;-38
2022/11/06 00:43:39;;;;;;;;;;;;;;;26.31;33.94;100695.97;5077252;28;1171;-39
2022/11/06 00:46:06;;;;;;;;;;;;;;;26.29;33.75;100693.47;5079558;28;1112;-38
2022/11/06 00:48:31;;;;;;;;;;;;;;;26.33;33.78;100690.44;5076478;28;1146;-38
2022/11/06 00:51:03;;;;;;;;;;;;;;;26.33;33.65;100693.13;5079727;28;1536;-38
2022/11/06 00:53:28;;;;;;;;;;;;;;;26.31;33.71;100698.66;5065832;28;1910;-39
2022/11/06 00:55:54;;;;;;;;;;;;;;;26.29;33.73;100693.47;5049363;28;1132;-38
2022/11/06 00:58:19;;;;;;;;;;;;;;;26.33;33.87;100693.97;5072961;28;1100;-37
2022/11/06 01:00:44;;;;;;;;;;;;;;;26.34;33.97;100697.53;5079901;28;1159;-38
2022/11/06 01:03:09;;;;;;;;;;;;;;;26.33;33.94;100696.66;5073028;28;1139;-38
2022/11/06 01:05:35;;;;;;;;;;;;;;;26.35;33.99;100696.50;5076757;28;1104;-38
2022/11/06 01:08:00;;;;;;;;;;;;;;;26.32;33.65;100688.72;5056106;28;1794;-39
2022/11/06 01:10:25;;;;;;;;;;;;;;;25.92;33.96;100628.47;5079220;28;1127;-38
2022/11/06 01:12:51;;;;;;;;;;;;;;;26.35;33.57;100680.31;5076064;28;1253;-36
2022/11/06 01:15:16;;;;;;;;;;;;;;;26.32;33.70;100676.09;5079300;28;1972;-38
2022/11/06 01:17:41;;;;;;;;;;;;;;;26.35;33.85;100683.84;5073408;28;1127;-38
2022/11/06 01:20:07;;;;;;;;;;;;;;;26.31;33.78;100682.50;5069870;28;1202;-38
2022/11/06 01:22:32;;;;;;;;;;;;;;;26.30;34.06;100683.53;5075473;28;1111;-38
2022/11/06 01:24:57;;;;;;;;;;;;;;;26.32;33.75;100668.00;5068551;28;1151;-37
2022/11/06 01:27:23;;;;;;;;;;;;;;;26.32;33.86;100675.25;5078985;28;1136;-38
2022/11/06 01:29:48;;;;;;;;;;;;;;;26.29;33.90;100671.06;5078810;28;1115;-37
2022/11/06 01:32:13;;;;;;;;;;;;;;;26.33;33.53;100666.16;5078694;28;1151;-38
2022/11/06 01:34:38;;;;;;;;;;;;;;;26.29;33.71;100666.50;5066696;28;1969;-38
2022/11/06 01:37:04;;;;;;;;;;;;;;;26.31;33.74;100666.31;5076564;28;2232;-37
2022/11/06 01:39:29;;;;;;;;;;;;;;;26.30;33.89;100670.03;5063274;28;1163;-38
2022/11/06 01:41:54;;;;;;;;;;;;;;;26.34;33.69;100670.56;5078749;28;1104;-38
2022/11/06 01:44:32;;;;;;;;;;;;;;;26.28;33.96;100678.31;5069772;28;1162;-38
2022/11/06 01:46:57;;;;;;;;;;;;;;;26.32;33.75;100672.56;5070039;28;1163;-38
2022/11/06 01:49:22;;;;;;;;;;;;;;;26.33;33.59;100663.47;5059082;28;1163;-37
2022/11/06 01:51:47;;;;;;;;;;;;;;;26.35;33.69;100673.06;5078553;28;1143;-38
2022/11/06 01:54:13;;;;;;;;;;;;;;;26.36;33.40;100669.34;5065546;28;1984;-40
2022/11/06 01:56:38;;;;;;;;;;;;;;;26.34;33.38;100674.06;5059776;28;1301;-38
2022/11/06 01:59:04;;;;;;;;;;;;;;;26.23;32.93;100659.13;5052072;28;1179;-38
2022/11/06 02:01:29;;;;;;;;;;;;;;;26.12;32.99;100662.25;5060490;28;1191;-36
2022/11/06 02:03:59;;;;;;;;;;;;;;;26.15;33.44;100662.72;5078493;28;1186;-37
2022/11/06 02:06:24;;;;;;;;;;;;;;;26.20;33.50;100654.09;5078759;28;1087;-37
2022/11/06 02:08:50;;;;;;;;;;;;;;;26.20;33.80;100650.56;5069420;28;2202;-37
2022/11/06 02:11:15;;;;;;;;;;;;;;;26.22;33.63;100659.31;5070063;28;1100;-39
2022/11/06 02:13:50;;;;;;;;;;;;;;;26.23;33.89;100648.34;5046597;28;1973;-38
2022/11/06 02:16:39;;;;;;;;;;;;;;;26.26;33.68;100647.13;5057863;28;1115;-37
2022/11/06 02:19:07;;;;;;;;;;;;;;;26.24;33.78;100650.00;5049321;28;1222;-39
2022/11/06 02:21:35;;;;;;;;;;;;;;;26.30;33.79;100653.84;5057770;28;1205;-37
2022/11/06 02:24:20;;;;;;;;;;;;;;;26.27;33.99;100655.06;5057523;28;1187;-37
2022/11/06 02:27:05;;;;;;;;;;;;;;;26.26;33.95;100658.75;5057877;28;1194;-39
2022/11/06 02:29:54;;;;;;;;;;;;;;;26.27;33.90;100655.06;5057518;28;1243;-39
2022/11/06 02:32:39;;;;;;;;;;;;;;;26.25;33.86;100662.50;5048757;28;1725;-38
2022/11/06 02:35:25;;;;;;;;;;;;;;;26.31;34.20;100666.31;5045281;28;1969;-38
2022/11/06 02:37:52;;;;;;;;;;;;;;;26.29;34.06;100660.28;5032641;28;1854;-38
2022/11/06 02:40:18;;;;;;;;;;;;;;;26.29;33.97;100663.78;5029663;28;1133;-40
2022/11/06 02:42:44;;;;;;;;;;;;;;;26.28;34.02;100670.22;5039808;28;1223;-37
2022/11/06 02:45:10;;;;;;;;;;;;;;;26.29;33.88;100666.50;5039782;28;880;-37
2022/11/06 02:47:35;;;;;;;;;;;;;;;26.33;33.89;100674.25;5039884;28;1200;-37
2022/11/06 02:50:03;;;;;;;;;;;;;;;26.31;33.87;100670.88;5039489;28;1192;-38
2022/11/06 02:52:39;;;;;;;;;;;;;;;26.32;34.06;100672.56;5057112;28;1178;-38
2022/11/06 02:55:07;;;;;;;;;;;;;;;26.31;33.99;100684.38;5039591;28;1902;-38
2022/11/06 02:57:35;;;;;;;;;;;;;;;26.34;33.98;100686.72;5056464;28;1179;-36
2022/11/06 03:00:01;;;;;;;;;;;;;;;26.36;33.96;100684.69;5039516;28;1156;-39
2022/11/06 03:02:29;;;;;;;;;;;;;;;26.34;33.97;100689.44;5042559;28;941;-37
2022/11/06 03:04:57;;;;;;;;;;;;;;;26.33;33.86;100680.50;5056966;28;1151;-37
2022/11/06 03:07:38;;;;;;;;;;;;;;;26.33;34.06;100679.63;5051046;28;1776;-37
2022/11/06 03:10:04;;;;;;;;;;;;;;;26.39;33.87;100676.25;5051270;28;859;-38
2022/11/06 03:12:30;;;;;;;;;;;;;;;26.36;34.11;100676.63;5026967;28;1128;-38
2022/11/06 03:14:59;;;;;;;;;;;;;;;26.30;34.19;100680.81;5074210;28;1906;-38
2022/11/06 03:17:28;;;;;;;;;;;;;;;26.30;34.38;100691.59;5076819;28;1099;-38
2022/11/06 03:19:56;;;;;;;;;;;;;;;26.31;33.88;100692.47;5058662;28;1104;-38
2022/11/06 03:22:28;;;;;;;;;;;;;;;26.30;34.01;100688.91;5076431;28;1112;-38
2022/11/06 03:25:12;;;;;;;;;;;;;;;26.31;33.84;100685.19;5076636;28;1174;-38
2022/11/06 03:27:39;;;;;;;;;;;;;;;26.30;33.97;100691.59;5076557;28;1064;-38
2022/11/06 03:30:05;;;;;;;;;;;;;;;26.31;33.96;100682.50;5058868;28;1187;-38
2022/11/06 03:32:36;;;;;;;;;;;;;;;26.33;34.04;100690.44;5076356;28;1171;-39
2022/11/06 03:35:05;;;;;;;;;;;;;;;26.33;33.95;100691.28;5064682;28;1890;-38
2022/11/06 03:37:35;;;;;;;;;;;;;;;26.34;33.98;100692.13;5071694;28;1836;-38
2022/11/06 03:40:01;;;;;;;;;;;;;;;26.29;34.06;100689.94;5058798;28;1088;-38
2022/11/06 03:42:27;;;;;;;;;;;;;;;26.43;33.59;100701.81;5058711;28;1112;-36
2022/11/06 03:44:56;;;;;;;;;;;;;;;26.34;34.03;100694.81;5074266;28;1512;-38
2022/11/06 03:47:24;;;;;;;;;;;;;;;26.33;34.14;100698.53;5076682;28;1178;-39
2022/11/06 03:49:59;;;;;;;;;;;;;;;26.28;34.43;100697.19;5072375;28;1155;-37
2022/11/06 03:52:34;;;;;;;;;;;;;;;26.32;34.05;100699.50;5070892;28;1240;-39
2022/11/06 03:55:02;;;;;;;;;;;;;;;26.31;34.23;100703.25;5071327;28;1924;-39
2022/11/06 03:57:30;;;;;;;;;;;;;;;26.30;33.88;100707.78;5069773;28;1139;-39
2022/11/06 03:59:57;;;;;;;;;;;;;;;26.28;34.03;100702.56;5055421;28;1116;-37
2022/11/06 04:02:22;;;;;;;;;;;;;;;26.30;34.16;100699.69;5055869;28;1186;-37
2022/11/06 04:04:49;;;;;;;;;;;;;;;26.33;33.94;100693.97;5038359;28;1084;-36
2022/11/06 04:07:18;;;;;;;;;;;;;;;26.29;34.51;100701.53;5038066;28;1762;-39
2022/11/06 04:15:14;;;;;;;;;;;;;;;26.33;33.89;100698.53;5060732;28;1898;-39
2022/11/06 04:17:39;;;;;;;;;;;;;;;26.35;34.21;100705.44;5057928;28;1131;-38
2022/11/06 04:20:06;;;;;;;;;;;;;;;26.32;34.17;100699.50;5075439;28;1123;-38
2022/11/06 04:22:37;;;;;;;;;;;;;;;26.32;34.10;100704.91;5057428;28;1167;-38
2022/11/06 04:27:53;;;;;;;;;;;;;;;26.28;34.24;100697.19;5075417;28;1059;-38
2022/11/06 04:30:19;;;;;;;;;;;;;;;26.31;34.47;100698.66;5076373;28;1183;-37
2022/11/06 04:32:47;;;;;;;;;;;;;;;26.27;33.96;100700.06;5078252;28;1198;-40
2022/11/06 04:35:15;;;;;;;;;;;;;;;26.22;33.64;100705.16;5075370;28;2034;-39
2022/11/06 04:37:47;;;;;;;;;;;;;;;26.26;33.59;100704.59;5073687;28;2385;-39
2022/11/06 04:40:12;;;;;;;;;;;;;;;26.27;34.03;100697.38;5055870;28;1132;-38
2022/11/06 04:42:46;;;;;;;;;;;;;;;26.37;33.90;100705.25;5055953;28;1120;-39
2022/11/06 04:45:13;;;;;;;;;;;;;;;26.37;34.11;100713.34;5055608;28;1194;-39
2022/11/06 04:47:38;;;;;;;;;;;;;;;26.70;33.90;100706.84;5070076;28;1115;-40
2022/11/06 04:50:04;;;;;;;;;;;;;;;26.67;33.57;100710.75;5061722;28;1026;-40
2022/11/06 04:52:30;;;;;;;;;;;;;;;25.94;33.50;100709.19;5075544;28;1099;-40
2022/11/06 04:54:55;;;;;;;;;;;;;;;25.76;34.81;100707.56;5057937;28;1972;-42
2022/11/06 04:57:21;;;;;;;;;;;;;;;25.80;34.72;100713.44;5056131;28;1184;-42
2022/11/06 04:59:46;;;;;;;;;;;;;;;25.77;35.01;100711.09;5059121;28;1171;-42
2022/11/06 05:02:11;;;;;;;;;;;;;;;25.56;34.57;100713.31;5055325;28;1187;-41
2022/11/06 05:04:37;;;;;;;;;;;;;;;25.56;35.36;100710.63;5075884;28;1203;-41
2022/11/06 05:07:02;;;;;;;;;;;;;;;25.69;35.39;100717.38;5075470;28;1955;-40
2022/11/06 05:09:27;;;;;;;;;;;;;;;25.81;35.29;100725.88;5073417;28;1160;-42
2022/11/06 05:11:52;;;;;;;;;;;;;;;25.94;35.09;100714.56;5065298;28;1105;-43
2022/11/06 05:14:18;;;;;;;;;;;;;;;25.86;35.26;100725.38;5075354;28;1910;-41
2022/11/06 05:16:43;;;;;;;;;;;;;;;25.25;36.59;100724.84;5075737;28;1143;-41
2022/11/06 05:19:09;;;;;;;;;;;;;;;25.01;37.11;100729.25;5075898;28;1480;-41
2022/11/06 05:24:18;;;;;;;;;;;;;;;24.77;38.05;100744.38;5072969;28;1084;-41
2022/11/06 05:26:43;;;;;;;;;;;;;;;24.67;37.87;100741.81;5078878;28;1116;-40
2022/11/06 05:29:09;;;;;;;;;;;;;;;24.72;38.09;100752.09;5079212;28;1123;-40
2022/11/06 05:31:35;;;;;;;;;;;;;;;25.15;37.12;100751.97;5079183;28;1112;-42
2022/11/06 05:34:00;;;;;;;;;;;;;;;25.55;36.21;100746.69;5074423;28;1886;-41
2022/11/06 05:36:25;;;;;;;;;;;;;;;25.76;35.61;100747.97;5074710;28;1116;-42
2022/11/06 05:38:50;;;;;;;;;;;;;;;25.89;35.33;100752.81;5069409;28;2180;-41
2022/11/06 05:41:16;;;;;;;;;;;;;;;25.96;35.22;100755.66;5078591;28;1112;-42
2022/11/06 05:43:41;;;;;;;;;;;;;;;25.91;35.56;100755.31;5079108;28;1112;-41
2022/11/06 05:46:06;;;;;;;;;;;;;;;25.89;35.63;100754.69;5074254;28;1171;-41
2022/11/06 05:48:31;;;;;;;;;;;;;;;25.86;35.83;100752.34;5075865;28;1105;-41
2022/11/06 05:51:00;;;;;;;;;;;;;;;25.90;35.60;100754.50;5078555;28;1147;-42
2022/11/06 05:53:25;;;;;;;;;;;;;;;25.93;35.37;100750.59;5078362;28;1898;-40
2022/11/06 05:55:52;;;;;;;;;;;;;;;26.00;35.34;100750.75;5060644;28;1155;-44
2022/11/06 05:58:18;;;;;;;;;;;;;;;25.98;35.56;100759.00;5072765;28;1120;-41
2022/11/06 06:00:44;;;;;;;;;;;;;;;25.98;36.07;100763.56;5078428;28;1136;-42
2022/11/06 06:03:09;;;;;;;;;;;;;;;25.96;35.93;100768.28;5078189;28;1230;-39
2022/11/06 06:05:34;;;;;;;;;;;;;;;25.95;36.01;100775.53;5060695;28;1230;-39
2022/11/06 06:07:59;;;;;;;;;;;;;;;25.99;36.24;100770.63;5068562;28;1856;-40
2022/11/06 06:10:25;;;;;;;;;;;;;;;25.99;36.16;100771.47;5069261;28;1140;-42
2022/11/06 06:12:50;;;;;;;;;;;;;;;25.99;35.80;100779.53;5060248;28;1124;-42
2022/11/06 06:15:16;;;;;;;;;;;;;;;26.02;35.97;100779.22;5077880;28;1913;-40
2022/11/06 06:17:41;;;;;;;;;;;;;;;25.98;36.19;100791.34;5078268;28;1076;-38
2022/11/06 06:20:07;;;;;;;;;;;;;;;26.07;35.80;100781.38;5077980;28;1143;-39
2022/11/06 06:22:32;;;;;;;;;;;;;;;26.14;35.92;100790.44;5075498;28;1116;-40
2022/11/06 06:24:57;;;;;;;;;;;;;;;26.10;35.93;100780.19;5078150;28;1198;-41
2022/11/06 06:27:26;;;;;;;;;;;;;;;26.20;35.99;100794.28;5078360;28;1123;-40
2022/11/06 06:29:51;;;;;;;;;;;;;;;26.19;35.57;100789.09;5077830;28;1136;-38
2022/11/06 06:32:16;;;;;;;;;;;;;;;26.22;35.58;100786.03;5077226;28;1163;-38
2022/11/06 06:34:42;;;;;;;;;;;;;;;26.27;35.60;100789.03;5076720;28;1897;-41
2022/11/06 06:37:07;;;;;;;;;;;;;;;26.06;35.11;100784.25;5076065;28;1777;-39
2022/11/06 06:39:32;;;;;;;;;;;;;;;26.09;35.58;100794.69;5077608;28;1252;-40
2022/11/06 06:41:58;;;;;;;;;;;;;;;26.20;35.30;100794.28;5077859;28;1100;-38
2022/11/06 06:44:23;;;;;;;;;;;;;;;26.26;35.47;100787.34;5077398;28;1179;-39
2022/11/06 06:46:48;;;;;;;;;;;;;;;26.27;35.27;100795.28;5076461;28;1202;-42
2022/11/06 06:49:14;;;;;;;;;;;;;;;26.33;35.39;100787.50;5077705;28;1163;-44
2022/11/06 06:51:39;;;;;;;;;;;;;;;26.45;35.02;100796.91;5075643;28;1155;-41
2022/11/06 06:54:04;;;;;;;;;;;;;;;26.52;35.24;100802.44;5077195;28;1890;-40
2022/11/06 06:56:30;;;;;;;;;;;;;;;26.56;35.07;100800.22;5077438;28;1178;-44
2022/11/06 06:58:55;;;;;;;;;;;;;;;26.62;34.96;100800.34;5075552;28;1120;-42
2022/11/06 07:01:20;;;;;;;;;;;;;;;26.64;34.77;100798.28;5076941;28;1092;-41
2022/11/06 07:03:45;;;;;;;;;;;;;;;26.61;34.45;100798.66;5077391;28;1140;-40
2022/11/06 07:06:11;;;;;;;;;;;;;;;26.67;34.67;100810.59;5077144;28;1167;-41
2022/11/06 07:08:36;;;;;;;;;;;;;;;26.71;34.68;100809.22;5062753;28;1741;-40
2022/11/06 07:11:02;;;;;;;;;;;;;;;26.74;34.54;100816.13;5076626;28;857;-41
2022/11/06 07:13:27;;;;;;;;;;;;;;;26.80;34.36;100807.31;5076812;28;1902;-41
2022/11/06 07:15:53;;;;;;;;;;;;;;;26.82;34.40;100813.38;5077070;28;1171;-40
2022/11/06 07:18:18;;;;;;;;;;;;;;;26.78;34.55;100822.81;5076962;28;1104;-39
2022/11/06 07:20:43;;;;;;;;;;;;;;;26.83;34.58;100815.03;5076752;28;1175;-37
2022/11/06 07:23:08;;;;;;;;;;;;;;;26.91;34.30;100819.53;5070202;28;1139;-38
2022/11/06 07:25:34;;;;;;;;;;;;;;;26.94;34.36;100816.50;5071921;28;1107;-40
2022/11/06 07:28:05;;;;;;;;;;;;;;;26.97;34.35;100823.38;5076449;28;1092;-40
2022/11/06 07:30:31;;;;;;;;;;;;;;;27.00;34.15;100826.56;5076581;28;1127;-39
2022/11/06 07:32:58;;;;;;;;;;;;;;;26.97;34.54;100824.22;5076686;28;1131;-41
2022/11/06 07:35:24;;;;;;;;;;;;;;;27.04;34.39;100831.63;5076448;28;1977;-37
2022/11/06 07:37:49;;;;;;;;;;;;;;;26.99;34.28;100824.88;5071733;28;1919;-39
2022/11/06 07:40:14;;;;;;;;;;;;;;;26.98;34.13;100831.28;5076475;28;1237;-39
2022/11/06 07:42:40;;;;;;;;;;;;;;;26.97;34.23;100829.63;5076353;28;1120;-40
2022/11/06 07:45:05;;;;;;;;;;;;;;;26.95;34.40;100833.50;5076391;28;1099;-40
2022/11/06 07:47:30;;;;;;;;;;;;;;;26.95;34.64;100836.22;5071370;28;918;-41
2022/11/06 07:49:56;;;;;;;;;;;;;;;26.97;34.53;100834.19;5076470;28;1135;-39
2022/11/06 07:52:21;;;;;;;;;;;;;;;27.02;34.56;100842.63;5076486;28;1080;-38
2022/11/06 07:54:46;;;;;;;;;;;;;;;27.08;34.27;100841.88;5076395;28;1909;-40
2022/11/06 07:57:12;;;;;;;;;;;;;;;27.02;34.65;100850.72;5076202;28;1100;-41
2022/11/06 07:59:37;;;;;;;;;;;;;;;27.06;34.39;100851.19;5075925;28;1115;-40
2022/11/06 08:02:02;;;;;;;;;;;;;;;27.10;34.24;100856.03;5076024;28;1148;-38
2022/11/06 08:04:28;;;;;;;;;;;;;;;27.18;34.37;100857.84;5076162;28;1131;-39
2022/11/06 08:06:53;;;;;;;;;;;;;;;27.21;34.03;100853.94;5076018;28;1895;-39
2022/11/06 08:09:18;;;;;;;;;;;;;;;27.28;34.13;100851.38;5062783;28;1108;-42
2022/11/06 08:11:43;;;;;;;;;;;;;;;27.17;34.33;100845.38;5067281;28;1096;-41
2022/11/06 08:14:09;;;;;;;;;;;;;;;27.22;34.01;100848.38;5075795;28;1913;-41
2022/11/06 08:16:35;;;;;;;;;;;;;;;26.74;31.56;100845.81;5076000;28;1222;-41
2022/11/06 08:19:00;;;;;;;;;;;;;;;26.72;31.57;100842.44;5076304;28;1108;-40
2022/11/06 08:21:25;;;;;;;;;;;;;;;26.63;31.47;100847.88;5076294;28;1107;-43
2022/11/06 08:23:51;;;;;;;;;;;;;;;26.64;31.56;100840.63;5067502;28;1178;-40
2022/11/06 08:26:16;;;;;;;;;;;;;;;26.65;31.50;100851.25;5076291;28;1115;-41
2022/11/06 08:28:41;;;;;;;;;;;;;;;26.70;31.95;100844.47;5075965;28;1096;-40
2022/11/06 08:31:07;;;;;;;;;;;;;;;26.99;32.75;100849.16;5075773;28;1109;-40
2022/11/06 08:33:32;;;;;;;;;;;;;;;27.08;33.10;100858.09;5075562;28;1898;-38
2022/11/06 08:36:02;;;;;;;;;;;;;;;27.30;32.91;100860.94;5068839;28;1222;-40
2022/11/06 08:38:27;;;;;;;;;;;;;;;27.45;32.55;100858.28;5071453;28;2068;-39
2022/11/06 08:40:52;;;;;;;;;;;;;;;27.33;32.68;100857.88;5075919;28;1116;-42
2022/11/06 08:43:18;;;;;;;;;;;;;;;27.48;32.85;100857.91;5075768;28;1116;-40
2022/11/06 08:45:43;;;;;;;;;;;;;;;27.41;32.57;100858.84;5076024;28;1147;-39
2022/11/06 08:48:08;;;;;;;;;;;;;;;27.39;33.04;100862.56;5070273;28;1179;-40
2022/11/06 08:50:34;;;;;;;;;;;;;;;27.42;32.78;100861.38;5075842;28;1135;-40
2022/11/06 08:53:02;;;;;;;;;;;;;;;27.35;33.26;100868.50;5074709;28;1108;-40
2022/11/06 08:55:28;;;;;;;;;;;;;;;27.34;33.08;100864.94;5074995;28;1897;-41
2022/11/06 08:57:54;;;;;;;;;;;;;;;27.39;33.25;100867.13;5079317;28;1163;-42
2022/11/06 09:00:19;;;;;;;;;;;;;;;27.50;32.97;100871.25;5079319;28;1147;-40
2022/11/06 09:02:44;;;;;;;;;;;;;;;27.45;33.35;100866.41;5079634;28;1116;-41
2022/11/06 09:05:09;;;;;;;;;;;;;;;27.43;33.34;100862.19;5079226;28;1167;-41
2022/11/06 09:07:35;;;;;;;;;;;;;;;27.45;33.47;100871.81;5073247;28;1785;-43
2022/11/06 09:10:00;;;;;;;;;;;;;;;27.51;33.24;100868.34;5071394;28;1124;-39
2022/11/06 09:12:25;;;;;;;;;;;;;;;27.49;33.60;100872.28;5072742;28;1127;-39
2022/11/06 09:14:51;;;;;;;;;;;;;;;27.48;33.54;100879.53;5078981;28;1902;-40
2022/11/06 09:17:18;;;;;;;;;;;;;;;27.43;32.13;100878.38;5078541;28;1258;-38
2022/11/06 09:19:43;;;;;;;;;;;;;;;27.45;33.34;100870.94;5061652;28;1203;-42
2022/11/06 09:22:09;;;;;;;;;;;;;;;27.55;33.29;100870.69;5079402;28;1187;-40
2022/11/06 09:24:34;;;;;;;;;;;;;;;27.54;32.62;100869.03;5070216;28;1139;-40
2022/11/06 09:26:59;;;;;;;;;;;;;;;27.00;30.43;100866.22;5078880;28;1144;-42
2022/11/06 09:29:25;;;;;;;;;;;;;;;26.65;30.43;100867.44;5064572;28;909;-42
2022/11/06 09:31:50;;;;;;;;;;;;;;;26.88;30.12;100872.03;5079071;28;1207;-41
2022/11/06 09:34:15;;;;;;;;;;;;;;;27.06;30.35;100870.09;5078608;28;1945;-40
2022/11/06 09:36:41;;;;;;;;;;;;;;;27.31;31.83;100872.59;5071462;28;1100;-42
2022/11/06 09:39:06;;;;;;;;;;;;;;;27.41;30.65;100875.88;5069942;28;2082;-41
2022/11/06 09:41:34;;;;;;;;;;;;;;;27.64;31.31;100869.63;5078821;28;1175;-41
2022/11/06 09:44:03;;;;;;;;;;;;;;;27.70;31.52;100876.16;5079040;28;1128;-41
2022/11/06 09:46:46;;;;;;;;;;;;;;;27.58;31.99;100863.06;5078061;28;1120;-44
2022/11/06 09:49:30;;;;;;;;;;;;;;;27.56;31.70;100875.91;5055240;28;1242;-41
2022/11/06 09:51:58;;;;;;;;;;;;;;;27.56;31.99;100872.38;5078700;28;1143;-41
2022/11/06 09:54:25;;;;;;;;;;;;;;;27.60;32.15;100871.00;5078778;28;1902;-41
2022/11/06 09:56:52;;;;;;;;;;;;;;;27.51;32.33;100876.47;5060911;28;1155;-41
2022/11/06 09:59:18;;;;;;;;;;;;;;;27.55;31.83;100876.94;5060684;28;1116;-39
2022/11/06 10:01:50;;;;;;;;;;;;;;;27.59;32.24;100872.84;5056378;28;868;-41
2022/11/06 10:04:36;;;;;;;;;;;;;;;27.38;30.92;100874.38;5078586;28;1092;-41
2022/11/06 10:07:01;;;;;;;;;;;;;;;27.31;30.72;100870.72;5026021;28;1730;-40
2022/11/06 10:09:26;;;;;;;;;;;;;;;27.23;29.70;100874.34;5065654;28;1137;-39
2022/11/06 10:11:52;;;;;;;;;;;;;;;27.04;30.00;100867.56;5076452;28;1180;-43
2022/11/06 10:14:23;;;;;;;;;;;;;;;26.78;30.26;100869.56;5077451;28;1910;-41
2022/11/06 10:16:51;;;;;;;;;;;;;;;26.72;29.24;100872.13;5078005;28;1191;-42
2022/11/06 10:19:24;;;;;;;;;;;;;;;26.78;29.46;100860.59;5060636;28;1169;-41
2022/11/06 10:21:53;;;;;;;;;;;;;;;27.15;30.85;100866.31;5060566;28;1116;-42
2022/11/06 10:24:19;;;;;;;;;;;;;;;27.26;31.41;100867.72;5077169;28;1191;-42
2022/11/06 10:26:44;;;;;;;;;;;;;;;27.23;31.53;100862.69;5077927;28;1108;-42
2022/11/06 10:29:16;;;;;;;;;;;;;;;27.17;29.90;100852.63;5059781;28;1108;-42
2022/11/06 10:31:45;;;;;;;;;;;;;;;27.21;31.52;100857.47;5078003;28;1116;-42
2022/11/06 10:34:36;;;;;;;;;;;;;;;26.70;29.43;100856.09;5060076;28;1965;-42
2022/11/06 10:37:06;;;;;;;;;;;;;;;26.85;30.81;100849.94;5037661;28;1964;-41
2022/11/06 10:39:33;;;;;;;;;;;;;;;27.01;31.72;100855.25;5077331;28;1162;-41
2022/11/06 10:42:18;;;;;;;;;;;;;;;26.97;29.56;100851.22;5077708;28;1159;-42
2022/11/06 10:44:43;;;;;;;;;;;;;;;26.55;28.86;100847.94;5076785;28;1412;-41
2022/11/06 10:47:10;;;;;;;;;;;;;;;26.80;29.35;100841.53;5077492;28;1174;-45
2022/11/06 10:49:40;;;;;;;;;;;;;;;27.08;30.78;100847.28;5047868;28;1108;-41
2022/11/06 10:52:09;;;;;;;;;;;;;;;27.13;31.12;100852.97;5059840;28;1096;-40
2022/11/06 10:54:37;;;;;;;;;;;;;;;26.92;30.10;100839.28;5076977;28;1902;-39
2022/11/06 10:57:21;;;;;;;;;;;;;;;26.34;29.26;100841.28;5059705;28;1271;-42
2022/11/06 10:59:47;;;;;;;;;;;;;;;26.06;29.07;100844.38;5077308;28;1168;-41
2022/11/06 11:02:21;;;;;;;;;;;;;;;26.25;29.36;100835.06;5077140;28;918;-41
2022/11/06 11:04:47;;;;;;;;;;;;;;;26.44;28.84;100845.63;5077260;28;1186;-42
2022/11/06 11:07:13;;;;;;;;;;;;;;;26.69;29.80;100842.78;5073981;28;1845;-41
2022/11/06 11:09:39;;;;;;;;;;;;;;;26.85;30.69;100847.25;5048794;28;1211;-45
2022/11/06 11:12:04;;;;;;;;;;;;;;;27.01;31.24;100852.56;5059119;28;1124;-43
2022/11/06 11:14:30;;;;;;;;;;;;;;;26.95;31.14;100858.66;5063783;28;1910;-43
2022/11/06 11:16:59;;;;;;;;;;;;;;;26.47;29.28;100859.63;5076086;28;1170;-42
2022/11/06 11:19:25;;;;;;;;;;;;;;;26.60;29.71;100855.47;5075665;28;1199;-44
2022/11/06 11:21:51;;;;;;;;;;;;;;;26.62;29.33;100857.00;5076595;28;1372;-44
2022/11/06 11:24:16;;;;;;;;;;;;;;;26.80;30.31;100846.94;5076229;28;1104;-44
2022/11/06 11:26:42;;;;;;;;;;;;;;;26.86;31.00;100847.06;5075794;28;1045;-41
2022/11/06 11:29:15;;;;;;;;;;;;;;;26.95;31.03;100855.09;5058192;28;1428;-43
2022/11/06 11:31:41;;;;;;;;;;;;;;;26.95;31.27;100844.31;5058745;28;1196;-44
2022/11/06 11:34:09;;;;;;;;;;;;;;;27.00;30.99;100842.75;5057876;28;1894;-41
2022/11/06 11:36:50;;;;;;;;;;;;;;;26.93;31.10;100841.78;5055582;28;1170;-43
2022/11/06 11:39:16;;;;;;;;;;;;;;;26.62;30.08;100848.91;5076062;28;2110;-43
2022/11/06 11:41:41;;;;;;;;;;;;;;;26.68;30.94;100847.34;5058954;28;1242;-43
2022/11/06 11:44:10;;;;;;;;;;;;;;;26.89;30.79;100845.88;5076571;28;1281;-42
2022/11/06 11:46:36;;;;;;;;;;;;;;;27.06;30.80;100852.00;5076548;28;1108;-41
2022/11/06 11:49:02;;;;;;;;;;;;;;;26.78;30.84;100847.13;5054844;28;1491;-43
2022/11/06 11:51:28;;;;;;;;;;;;;;;26.80;31.71;100853.19;5075988;28;1096;-41
2022/11/06 11:53:55;;;;;;;;;;;;;;;26.96;31.42;100863.03;5075974;28;1902;-44
2022/11/06 11:56:21;;;;;;;;;;;;;;;27.09;30.97;100857.03;5076694;28;1135;-42
2022/11/06 11:58:56;;;;;;;;;;;;;;;27.13;30.80;100850.28;5076186;28;1183;-41
2022/11/06 12:01:50;;;;;;;;;;;;;;;27.20;31.13;100853.09;5068814;28;1174;-43
2022/11/06 12:04:25;;;;;;;;;;;;;;;27.14;31.02;100854.66;5054053;28;1191;-43
2022/11/06 12:06:53;;;;;;;;;;;;;;;27.21;30.74;100853.94;5076369;28;1136;-43
2022/11/06 12:09:18;;;;;;;;;;;;;;;27.34;30.75;100854.16;5044958;28;1208;-48
2022/11/06 12:11:44;;;;;;;;;;;;;;;27.18;31.17;100855.13;5076502;28;1116;-41
2022/11/06 12:14:38;;;;;;;;;;;;;;;26.94;32.54;100865.09;5057736;28;1976;-40
2022/11/06 12:17:08;;;;;;;;;;;;;;;26.30;35.87;100856.09;5058648;28;1394;-46
2022/11/06 12:19:34;;;;;;;;;;;;;;;26.16;36.10;100858.50;5041496;28;1152;-46
2022/11/06 12:22:00;;;;;;;;;;;;;;;26.15;35.73;100850.59;5045657;28;1084;-44
2022/11/06 12:24:34;;;;;;;;;;;;;;;26.20;36.17;100858.16;5056945;28;1371;-44
2022/11/06 12:27:03;;;;;;;;;;;;;;;26.15;36.22;100859.53;5068578;28;910;-48
2022/11/06 12:29:32;;;;;;;;;;;;;;;26.14;36.50;100862.41;5058565;28;1140;-47
2022/11/06 12:31:59;;;;;;;;;;;;;;;25.97;37.22;100869.69;5062463;28;1136;-47
2022/11/06 12:34:34;;;;;;;;;;;;;;;25.80;37.08;100856.25;5062173;28;1964;-47
2022/11/06 12:37:11;;;;;;;;;;;;;;;25.79;36.93;100860.78;5078798;28;1825;-47
2022/11/06 12:39:37;;;;;;;;;;;;;;;25.82;37.22;100858.78;5062055;28;1152;-47
2022/11/06 12:42:02;;;;;;;;;;;;;;;25.87;37.12;100865.34;5061991;28;1147;-47
2022/11/06 12:44:27;;;;;;;;;;;;;;;25.87;37.18;100870.72;5061859;28;1116;-46
2022/11/06 12:46:53;;;;;;;;;;;;;;;25.90;36.61;100856.91;5079789;28;1294;-45
2022/11/06 12:49:37;;;;;;;;;;;;;;;25.86;37.03;100862.81;5076011;28;1183;-47
2022/11/06 12:52:20;;;;;;;;;;;;;;;25.89;37.04;100862.47;5068603;28;1077;-44
2022/11/06 12:54:46;;;;;;;;;;;;;;;25.83;37.02;100865.84;5079541;28;1913;-46
2022/11/06 12:57:29;;;;;;;;;;;;;;;25.81;37.27;100863.31;5079500;28;1116;-48
2022/11/06 13:00:05;;;;;;;;;;;;;;;25.58;37.64;100864.00;5078616;28;1060;-45
2022/11/06 13:02:36;;;;;;;;;;;;;;;25.65;37.41;100865.03;5057528;28;855;-47